AXB875 VABB-VIDP
Flight info
| Callsign | AXB875 |
|---|---|
| Flight time | N/A |
| Altitude | 30000 |
| Route | ANOLI2A ISRIS G208 DOSTO Q1 BUBNU |
| Aircraft | B738/M-SDE2E3FGHIRWXY/LB1 |
Departure
| Time | 2026-05-05 07:02 |
|---|---|
| Airport | Chhatrapati Shivaji Maharaj International Airport (VABB) |
Arrival
| Time | N/A |
|---|---|
| Airport | Indira Gandhi International Airport (VIDP) |
| Time | Latitude | Longitude | Altitude | Speed | Heading |
|---|---|---|---|---|---|
| 2026-05-05 06:08 | 19.09153 | 72.85219 | 28 ft | 0 kts | 358° |
| 2026-05-05 06:29 | 19.09140 | 72.85220 | 29 ft | 2 kts | 358° |
| 2026-05-05 06:30 | 19.09123 | 72.85220 | 28 ft | 2 kts | 358° |
| 2026-05-05 06:30 | 19.09107 | 72.85221 | 28 ft | 2 kts | 358° |
| 2026-05-05 06:30 | 19.09097 | 72.85220 | 28 ft | 1 kts | 43° |
| 2026-05-05 06:30 | 19.09093 | 72.85213 | 28 ft | 1 kts | 89° |
| 2026-05-05 06:31 | 19.09092 | 72.85204 | 28 ft | 1 kts | 87° |
| 2026-05-05 06:31 | 19.09092 | 72.85202 | 28 ft | 0 kts | 92° |
| 2026-05-05 06:49 | 19.09092 | 72.85203 | 28 ft | 0 kts | 92° |
| 2026-05-05 06:50 | 19.09092 | 72.85252 | 28 ft | 11 kts | 88° |
| 2026-05-05 06:50 | 19.09092 | 72.85329 | 28 ft | 10 kts | 92° |
| 2026-05-05 06:50 | 19.09069 | 72.85394 | 28 ft | 10 kts | 153° |
| 2026-05-05 06:50 | 19.09027 | 72.85446 | 28 ft | 10 kts | 96° |
| 2026-05-05 06:51 | 19.09026 | 72.85518 | 28 ft | 10 kts | 89° |
| 2026-05-05 06:51 | 19.09027 | 72.85561 | 28 ft | 1 kts | 89° |
| 2026-05-05 06:51 | 19.09027 | 72.85576 | 29 ft | 3 kts | 89° |
| 2026-05-05 06:51 | 19.09027 | 72.85629 | 29 ft | 11 kts | 90° |
| 2026-05-05 06:52 | 19.09029 | 72.85728 | 29 ft | 14 kts | 88° |
| 2026-05-05 06:52 | 19.09032 | 72.85831 | 30 ft | 14 kts | 88° |
| 2026-05-05 06:52 | 19.09032 | 72.85929 | 30 ft | 13 kts | 91° |
| 2026-05-05 06:52 | 19.09033 | 72.86024 | 31 ft | 13 kts | 89° |
| 2026-05-05 06:53 | 19.09036 | 72.86116 | 32 ft | 12 kts | 88° |
| 2026-05-05 06:53 | 19.09038 | 72.86206 | 33 ft | 12 kts | 88° |
| 2026-05-05 06:53 | 19.09042 | 72.86293 | 34 ft | 12 kts | 91° |
| 2026-05-05 06:53 | 19.09036 | 72.86378 | 34 ft | 11 kts | 93° |
| 2026-05-05 06:54 | 19.09036 | 72.86461 | 34 ft | 11 kts | 85° |
| 2026-05-05 06:54 | 19.09041 | 72.86546 | 32 ft | 12 kts | 88° |
| 2026-05-05 06:54 | 19.09041 | 72.86634 | 34 ft | 12 kts | 90° |
| 2026-05-05 06:54 | 19.09043 | 72.86721 | 34 ft | 12 kts | 89° |
| 2026-05-05 06:55 | 19.09045 | 72.86813 | 34 ft | 13 kts | 88° |
| 2026-05-05 06:55 | 19.09047 | 72.86911 | 33 ft | 14 kts | 89° |
| 2026-05-05 06:55 | 19.09049 | 72.87015 | 33 ft | 14 kts | 89° |
| 2026-05-05 06:55 | 19.09049 | 72.87118 | 33 ft | 14 kts | 89° |
| 2026-05-05 06:56 | 19.09051 | 72.87217 | 33 ft | 13 kts | 88° |
| 2026-05-05 06:56 | 19.09051 | 72.87317 | 33 ft | 14 kts | 90° |
| 2026-05-05 06:56 | 19.09053 | 72.87417 | 33 ft | 14 kts | 90° |
| 2026-05-05 06:56 | 19.09053 | 72.87516 | 32 ft | 14 kts | 90° |
| 2026-05-05 06:57 | 19.09055 | 72.87620 | 32 ft | 14 kts | 89° |
| 2026-05-05 06:57 | 19.09055 | 72.87725 | 32 ft | 14 kts | 89° |
| 2026-05-05 06:57 | 19.09056 | 72.87830 | 32 ft | 14 kts | 89° |
| 2026-05-05 06:57 | 19.09059 | 72.87931 | 32 ft | 14 kts | 89° |
| 2026-05-05 06:58 | 19.09053 | 72.88028 | 31 ft | 13 kts | 119° |
| 2026-05-05 06:58 | 19.08969 | 72.88046 | 31 ft | 14 kts | 198° |
| 2026-05-05 06:58 | 19.08911 | 72.87971 | 31 ft | 13 kts | 240° |
| 2026-05-05 06:58 | 19.08888 | 72.87886 | 31 ft | 0 kts | 267° |
| 2026-05-05 07:01 | 19.08886 | 72.87853 | 32 ft | 18 kts | 267° |
| 2026-05-05 07:01 | 19.08882 | 72.87541 | 32 ft | 76 kts | 270° |
| 2026-05-05 07:02 | 19.08863 | 72.86723 | 33 ft | 144 kts | 268° |
| 2026-05-05 07:02 | 19.08823 | 72.85519 | 356 ft | 176 kts | 269° |
| 2026-05-05 07:02 | 19.08814 | 72.84090 | 676 ft | 215 kts | 269° |
| 2026-05-05 07:02 | 19.08811 | 72.82380 | 857 ft | 248 kts | 269° |
| 2026-05-05 07:03 | 19.08725 | 72.80516 | 1388 ft | 262 kts | 265° |
| 2026-05-05 07:03 | 19.08508 | 72.78565 | 2222 ft | 267 kts | 261° |
| 2026-05-05 07:03 | 19.08188 | 72.76577 | 2465 ft | 295 kts | 258° |
| 2026-05-05 07:03 | 19.07731 | 72.74218 | 1852 ft | 348 kts | 257° |
| 2026-05-05 07:04 | 19.07208 | 72.71824 | 3195 ft | 321 kts | 259° |
| 2026-05-05 07:04 | 19.07288 | 72.69580 | 4807 ft | 296 kts | 288° |
| 2026-05-05 07:04 | 19.08360 | 72.67841 | 6170 ft | 278 kts | 320° |
| 2026-05-05 07:04 | 19.10086 | 72.66972 | 7030 ft | 281 kts | 350° |
| 2026-05-05 07:05 | 19.12036 | 72.67197 | 7593 ft | 290 kts | 21° |
| 2026-05-05 07:05 | 19.13930 | 72.67982 | 8264 ft | 294 kts | 16° |
| 2026-05-05 07:05 | 19.15904 | 72.68569 | 8985 ft | 296 kts | 15° |
| 2026-05-05 07:05 | 19.17860 | 72.69263 | 9697 ft | 298 kts | 26° |
| 2026-05-05 07:06 | 19.19581 | 72.70492 | 10335 ft | 300 kts | 38° |
| 2026-05-05 07:06 | 19.21333 | 72.71711 | 10964 ft | 304 kts | 29° |
| 2026-05-05 07:06 | 19.23260 | 72.72656 | 11585 ft | 308 kts | 21° |
| 2026-05-05 07:06 | 19.25312 | 72.73344 | 12230 ft | 311 kts | 15° |
| 2026-05-05 07:07 | 19.27442 | 72.73832 | 12876 ft | 315 kts | 9° |
| 2026-05-05 07:07 | 19.29639 | 72.73997 | 13502 ft | 319 kts | 359° |
| 2026-05-05 07:07 | 19.31863 | 72.74041 | 14092 ft | 321 kts | 5° |
| 2026-05-05 07:07 | 19.34087 | 72.74339 | 14718 ft | 322 kts | 8° |
| 2026-05-05 07:08 | 19.36276 | 72.74712 | 15355 ft | 322 kts | 9° |
| 2026-05-05 07:08 | 19.38488 | 72.75100 | 15988 ft | 323 kts | 8° |
| 2026-05-05 07:08 | 19.40713 | 72.75482 | 16609 ft | 324 kts | 8° |
| 2026-05-05 07:08 | 19.42950 | 72.75855 | 17243 ft | 325 kts | 7° |
| 2026-05-05 07:09 | 19.45199 | 72.76219 | 17844 ft | 327 kts | 7° |
| 2026-05-05 07:09 | 19.47462 | 72.76579 | 18391 ft | 330 kts | 7° |
| 2026-05-05 07:09 | 19.49746 | 72.76936 | 18903 ft | 332 kts | 6° |
| 2026-05-05 07:09 | 19.52013 | 72.77289 | 19426 ft | 333 kts | 6° |
| 2026-05-05 07:10 | 19.54343 | 72.77650 | 19944 ft | 335 kts | 6° |
| 2026-05-05 07:10 | 19.56653 | 72.78006 | 20476 ft | 336 kts | 6° |
| 2026-05-05 07:10 | 19.58947 | 72.78360 | 20996 ft | 338 kts | 6° |
| 2026-05-05 07:10 | 19.61275 | 72.78718 | 21503 ft | 339 kts | 6° |
| 2026-05-05 07:11 | 19.63617 | 72.79079 | 21998 ft | 341 kts | 5° |
| 2026-05-05 07:11 | 19.65970 | 72.79442 | 22492 ft | 342 kts | 5° |
| 2026-05-05 07:11 | 19.68333 | 72.79805 | 22964 ft | 344 kts | 5° |
| 2026-05-05 07:11 | 19.70707 | 72.80171 | 23429 ft | 346 kts | 5° |
| 2026-05-05 07:12 | 19.73095 | 72.80539 | 23829 ft | 348 kts | 5° |
| 2026-05-05 07:12 | 19.75508 | 72.80911 | 24160 ft | 351 kts | 5° |
| 2026-05-05 07:12 | 19.77960 | 72.81289 | 24307 ft | 361 kts | 5° |
| 2026-05-05 07:12 | 19.79623 | 72.81544 | 24349 ft | 369 kts | 5° |
| 2026-05-05 07:13 | 19.83060 | 72.82072 | 24443 ft | 384 kts | 5° |
| 2026-05-05 07:13 | 19.85736 | 72.82485 | 24513 ft | 394 kts | 5° |
| 2026-05-05 07:13 | 19.88478 | 72.82909 | 24653 ft | 401 kts | 5° |
| 2026-05-05 07:13 | 19.91256 | 72.83340 | 24928 ft | 404 kts | 5° |
| 2026-05-05 07:14 | 19.93137 | 72.83632 | 25148 ft | 404 kts | 5° |
| 2026-05-05 07:14 | 19.95889 | 72.84059 | 25471 ft | 406 kts | 5° |
| 2026-05-05 07:14 | 19.98695 | 72.84494 | 25743 ft | 409 kts | 5° |
| 2026-05-05 07:14 | 20.01524 | 72.84932 | 26005 ft | 412 kts | 5° |
| 2026-05-05 07:15 | 20.04370 | 72.85373 | 26246 ft | 415 kts | 5° |
| 2026-05-05 07:15 | 20.07242 | 72.85817 | 26568 ft | 416 kts | 5° |
| 2026-05-05 07:15 | 20.10111 | 72.86246 | 26963 ft | 415 kts | 4° |
| 2026-05-05 07:15 | 20.13902 | 72.86740 | 27452 ft | 415 kts | 4° |
| 2026-05-05 07:16 | 20.15843 | 72.86980 | 27654 ft | 415 kts | 3° |
| 2026-05-05 07:16 | 20.18716 | 72.87332 | 27989 ft | 416 kts | 3° |
| 2026-05-05 07:16 | 20.21589 | 72.87686 | 28356 ft | 416 kts | 3° |
| 2026-05-05 07:16 | 20.24465 | 72.88045 | 28707 ft | 416 kts | 3° |
| 2026-05-05 07:17 | 20.27341 | 72.88407 | 29029 ft | 417 kts | 3° |
| 2026-05-05 07:17 | 20.30185 | 72.88768 | 29351 ft | 417 kts | 3° |
| 2026-05-05 07:17 | 20.33107 | 72.89140 | 29711 ft | 417 kts | 3° |
| 2026-05-05 07:17 | 20.35955 | 72.89503 | 29928 ft | 420 kts | 3° |
| 2026-05-05 07:18 | 20.38884 | 72.89875 | 29911 ft | 426 kts | 3° |
| 2026-05-05 07:18 | 20.44840 | 72.90634 | 29920 ft | 437 kts | 3° |
| 2026-05-05 07:19 | 20.50946 | 72.91414 | 29919 ft | 447 kts | 3° |
| 2026-05-05 07:19 | 20.57186 | 72.92213 | 29918 ft | 455 kts | 3° |
| 2026-05-05 07:20 | 20.63530 | 72.93025 | 29915 ft | 462 kts | 3° |
| 2026-05-05 07:20 | 20.69953 | 72.93849 | 29913 ft | 468 kts | 3° |
| 2026-05-05 07:21 | 20.76413 | 72.94662 | 29911 ft | 472 kts | 2° |
| 2026-05-05 07:21 | 20.82973 | 72.95008 | 29909 ft | 473 kts | 358° |
| 2026-05-05 07:22 | 20.89590 | 72.95155 | 29900 ft | 476 kts | 358° |
| 2026-05-05 07:22 | 20.96255 | 72.95361 | 29895 ft | 479 kts | 358° |
| 2026-05-05 07:23 | 21.02899 | 72.95611 | 29888 ft | 481 kts | 358° |
| 2026-05-05 07:23 | 21.09589 | 72.95868 | 29889 ft | 482 kts | 358° |
| 2026-05-05 07:24 | 21.16278 | 72.96150 | 29884 ft | 483 kts | 1° |
| 2026-05-05 07:24 | 21.22879 | 72.97750 | 29887 ft | 490 kts | 16° |
| 2026-05-05 07:25 | 21.29282 | 73.00280 | 29883 ft | 490 kts | 17° |
| 2026-05-05 07:25 | 21.35674 | 73.02826 | 29890 ft | 489 kts | 16° |
| 2026-05-05 07:26 | 21.42041 | 73.05312 | 29885 ft | 489 kts | 16° |
| 2026-05-05 07:26 | 21.48449 | 73.07788 | 29877 ft | 488 kts | 15° |
| 2026-05-05 07:27 | 21.54855 | 73.10260 | 29894 ft | 488 kts | 15° |
| 2026-05-05 07:27 | 21.61213 | 73.12717 | 29876 ft | 488 kts | 15° |
| 2026-05-05 07:28 | 21.67606 | 73.15193 | 29889 ft | 487 kts | 15° |
| 2026-05-05 07:28 | 21.73997 | 73.17670 | 29874 ft | 487 kts | 15° |
| 2026-05-05 07:29 | 21.80342 | 73.20132 | 29867 ft | 487 kts | 15° |
| 2026-05-05 07:29 | 21.86704 | 73.22603 | 29867 ft | 487 kts | 15° |
| 2026-05-05 07:30 | 21.93089 | 73.25085 | 29876 ft | 487 kts | 15° |
| 2026-05-05 07:30 | 22.02620 | 73.28795 | 29870 ft | 486 kts | 15° |
| 2026-05-05 07:31 | 22.09019 | 73.31288 | 29861 ft | 486 kts | 15° |
| 2026-05-05 07:31 | 22.15355 | 73.33760 | 29863 ft | 486 kts | 15° |
| 2026-05-05 07:32 | 22.21710 | 73.36241 | 29859 ft | 485 kts | 15° |
| 2026-05-05 07:32 | 22.28055 | 73.38720 | 29858 ft | 485 kts | 15° |
| 2026-05-05 07:33 | 22.34412 | 73.41207 | 29861 ft | 485 kts | 15° |
| 2026-05-05 07:33 | 22.40755 | 73.43691 | 29864 ft | 485 kts | 15° |
| 2026-05-05 07:34 | 22.47096 | 73.46176 | 29869 ft | 484 kts | 15° |
| 2026-05-05 07:34 | 22.53391 | 73.48646 | 29871 ft | 484 kts | 15° |
| 2026-05-05 07:35 | 22.59725 | 73.51134 | 29870 ft | 484 kts | 15° |
| 2026-05-05 07:35 | 22.66052 | 73.53621 | 29872 ft | 483 kts | 15° |
| 2026-05-05 07:36 | 22.72377 | 73.56111 | 29872 ft | 483 kts | 15° |
| 2026-05-05 07:36 | 22.78696 | 73.58600 | 29872 ft | 483 kts | 15° |
| 2026-05-05 07:37 | 22.85024 | 73.61096 | 29875 ft | 483 kts | 15° |
| 2026-05-05 07:37 | 22.91303 | 73.63577 | 29874 ft | 482 kts | 15° |
| 2026-05-05 07:38 | 22.97609 | 73.66071 | 29877 ft | 482 kts | 15° |
| 2026-05-05 07:38 | 23.03913 | 73.68567 | 29873 ft | 482 kts | 15° |
| 2026-05-05 07:39 | 23.10207 | 73.71062 | 29881 ft | 481 kts | 14° |
| 2026-05-05 07:39 | 23.16502 | 73.73560 | 29875 ft | 481 kts | 14° |
| 2026-05-05 07:40 | 23.22789 | 73.76056 | 29880 ft | 481 kts | 14° |
| 2026-05-05 07:40 | 23.29075 | 73.78555 | 29880 ft | 480 kts | 14° |
| 2026-05-05 07:41 | 23.35346 | 73.81051 | 29888 ft | 480 kts | 14° |
| 2026-05-05 07:41 | 23.41616 | 73.83549 | 29888 ft | 480 kts | 14° |
| 2026-05-05 07:42 | 23.47885 | 73.86049 | 29885 ft | 480 kts | 14° |
| 2026-05-05 07:42 | 23.54147 | 73.88548 | 29888 ft | 479 kts | 14° |
| 2026-05-05 07:43 | 23.60406 | 73.91049 | 29887 ft | 479 kts | 14° |
| 2026-05-05 07:43 | 23.66661 | 73.93551 | 29890 ft | 479 kts | 14° |
| 2026-05-05 07:44 | 23.72916 | 73.96055 | 29892 ft | 479 kts | 14° |
| 2026-05-05 07:44 | 23.79168 | 73.98562 | 29895 ft | 479 kts | 14° |
| 2026-05-05 07:45 | 23.85374 | 74.01052 | 29901 ft | 478 kts | 14° |
| 2026-05-05 07:45 | 23.91625 | 74.03562 | 29897 ft | 478 kts | 14° |
| 2026-05-05 07:46 | 23.97916 | 74.06093 | 29903 ft | 478 kts | 14° |
| 2026-05-05 07:46 | 24.04119 | 74.08587 | 29907 ft | 478 kts | 14° |
| 2026-05-05 07:47 | 24.10373 | 74.11067 | 29911 ft | 478 kts | 14° |
| 2026-05-05 07:47 | 24.16631 | 74.13545 | 29913 ft | 478 kts | 14° |
| 2026-05-05 07:48 | 24.22889 | 74.16032 | 29911 ft | 479 kts | 14° |
| 2026-05-05 07:48 | 24.29144 | 74.18552 | 29919 ft | 479 kts | 14° |
| 2026-05-05 07:49 | 24.35397 | 74.21087 | 29917 ft | 479 kts | 14° |
| 2026-05-05 07:49 | 24.41650 | 74.23622 | 29919 ft | 479 kts | 14° |
| 2026-05-05 07:50 | 24.47916 | 74.26163 | 29921 ft | 480 kts | 14° |
| 2026-05-05 07:50 | 24.54173 | 74.28702 | 29918 ft | 480 kts | 14° |
| 2026-05-05 07:51 | 24.60436 | 74.31245 | 29919 ft | 480 kts | 14° |
| 2026-05-05 07:51 | 24.66703 | 74.33793 | 29921 ft | 480 kts | 14° |
| 2026-05-05 07:52 | 24.72972 | 74.36345 | 29921 ft | 481 kts | 14° |
| 2026-05-05 07:52 | 24.79245 | 74.38902 | 29921 ft | 481 kts | 14° |
| 2026-05-05 07:53 | 24.85518 | 74.41461 | 29921 ft | 481 kts | 14° |
| 2026-05-05 07:53 | 24.91790 | 74.44022 | 29917 ft | 481 kts | 14° |
| 2026-05-05 07:54 | 24.98065 | 74.46588 | 29914 ft | 481 kts | 14° |
| 2026-05-05 07:54 | 25.04341 | 74.49157 | 29916 ft | 481 kts | 14° |
| 2026-05-05 07:55 | 25.10619 | 74.51730 | 29912 ft | 481 kts | 14° |
| 2026-05-05 07:55 | 25.16890 | 74.54303 | 29910 ft | 481 kts | 14° |
| 2026-05-05 07:56 | 25.23124 | 74.56868 | 29905 ft | 481 kts | 14° |
| 2026-05-05 07:56 | 25.29397 | 74.59454 | 29916 ft | 481 kts | 14° |
| 2026-05-05 07:57 | 25.35663 | 74.62041 | 29909 ft | 481 kts | 14° |
| 2026-05-05 07:57 | 25.41930 | 74.64630 | 29917 ft | 481 kts | 14° |
| 2026-05-05 07:58 | 25.48197 | 74.67221 | 29910 ft | 481 kts | 14° |
| 2026-05-05 07:58 | 25.54466 | 74.69817 | 29912 ft | 481 kts | 14° |
| 2026-05-05 07:59 | 25.60730 | 74.72414 | 29914 ft | 481 kts | 14° |
| 2026-05-05 07:59 | 25.66991 | 74.75012 | 29914 ft | 481 kts | 14° |
| 2026-05-05 08:00 | 25.73256 | 74.77615 | 29912 ft | 481 kts | 14° |
| 2026-05-05 08:00 | 25.79520 | 74.80220 | 29918 ft | 481 kts | 15° |
| 2026-05-05 08:01 | 25.85789 | 74.82831 | 29910 ft | 481 kts | 15° |
| 2026-05-05 08:01 | 25.92052 | 74.85442 | 29923 ft | 481 kts | 15° |
| 2026-05-05 08:02 | 25.97253 | 74.87612 | 29922 ft | 481 kts | 15° |
| 2026-05-05 08:02 | 26.03518 | 74.90229 | 29919 ft | 481 kts | 15° |
| 2026-05-05 08:03 | 26.09782 | 74.92850 | 29910 ft | 481 kts | 15° |
| 2026-05-05 08:03 | 26.16046 | 74.95473 | 29915 ft | 481 kts | 15° |
| 2026-05-05 08:04 | 26.22309 | 74.98095 | 29914 ft | 481 kts | 15° |
| 2026-05-05 08:04 | 26.28578 | 75.00721 | 29922 ft | 481 kts | 15° |
| 2026-05-05 08:05 | 26.34850 | 75.03353 | 29918 ft | 482 kts | 15° |
| 2026-05-05 08:05 | 26.41123 | 75.05989 | 29920 ft | 482 kts | 15° |
| 2026-05-05 08:06 | 26.47403 | 75.08627 | 29922 ft | 482 kts | 15° |
| 2026-05-05 08:06 | 26.53689 | 75.11258 | 29926 ft | 482 kts | 15° |
| 2026-05-05 08:07 | 26.59813 | 75.14231 | 29895 ft | 494 kts | 32° |
| 2026-05-05 08:07 | 26.62296 | 75.17005 | 29924 ft | 507 kts | 51° |
| 2026-05-05 08:07 | 26.63859 | 75.20501 | 29923 ft | 516 kts | 71° |
| 2026-05-05 08:08 | 26.64395 | 75.24482 | 29917 ft | 523 kts | 90° |
| 2026-05-05 08:08 | 26.63803 | 75.28484 | 29917 ft | 525 kts | 110° |
| 2026-05-05 08:08 | 26.62168 | 75.32107 | 29940 ft | 523 kts | 123° |
| 2026-05-05 08:08 | 26.60348 | 75.35627 | 29900 ft | 525 kts | 117° |
| 2026-05-05 08:09 | 26.57702 | 75.43241 | 29912 ft | 527 kts | 107° |
| 2026-05-05 08:09 | 26.55830 | 75.51159 | 29907 ft | 527 kts | 103° |
| 2026-05-05 08:10 | 26.54087 | 75.59116 | 29914 ft | 528 kts | 104° |
| 2026-05-05 08:10 | 26.52257 | 75.67052 | 29918 ft | 528 kts | 104° |
| 2026-05-05 08:11 | 26.50359 | 75.74964 | 29923 ft | 528 kts | 105° |
| 2026-05-05 08:11 | 26.48442 | 75.82869 | 29926 ft | 527 kts | 105° |
| 2026-05-05 08:12 | 26.46526 | 75.90772 | 29926 ft | 527 kts | 105° |
| 2026-05-05 08:12 | 26.44611 | 75.98670 | 29926 ft | 527 kts | 105° |
| 2026-05-05 08:13 | 26.42706 | 76.06514 | 29928 ft | 527 kts | 105° |
| 2026-05-05 08:13 | 26.40785 | 76.14405 | 29932 ft | 527 kts | 105° |
| 2026-05-05 08:14 | 26.38857 | 76.22301 | 29932 ft | 527 kts | 105° |
| 2026-05-05 08:14 | 26.36929 | 76.30174 | 29926 ft | 527 kts | 105° |
| 2026-05-05 08:15 | 26.34994 | 76.38055 | 29928 ft | 527 kts | 105° |
| 2026-05-05 08:15 | 26.33063 | 76.45901 | 29928 ft | 526 kts | 105° |
| 2026-05-05 08:16 | 26.31126 | 76.53753 | 29929 ft | 526 kts | 105° |
| 2026-05-05 08:16 | 26.29175 | 76.61639 | 29930 ft | 526 kts | 105° |
| 2026-05-05 08:17 | 26.27226 | 76.69498 | 29926 ft | 526 kts | 105° |
| 2026-05-05 08:17 | 26.25273 | 76.77356 | 29934 ft | 526 kts | 105° |
| 2026-05-05 08:18 | 26.24305 | 76.81242 | 29876 ft | 513 kts | 105° |
| 2026-05-05 08:18 | 26.23364 | 76.85017 | 29745 ft | 499 kts | 106° |
| 2026-05-05 08:18 | 26.22446 | 76.88697 | 29646 ft | 485 kts | 106° |
| 2026-05-05 08:18 | 26.21553 | 76.92270 | 29540 ft | 472 kts | 106° |
| 2026-05-05 08:19 | 26.20694 | 76.95701 | 29443 ft | 460 kts | 106° |
| 2026-05-05 08:19 | 26.19836 | 76.99127 | 29338 ft | 448 kts | 106° |
| 2026-05-05 08:19 | 26.19016 | 77.02400 | 28988 ft | 443 kts | 106° |
| 2026-05-05 08:19 | 26.18185 | 77.05707 | 28428 ft | 444 kts | 106° |
| 2026-05-05 08:20 | 26.17351 | 77.09023 | 27822 ft | 446 kts | 106° |
| 2026-05-05 08:20 | 26.16511 | 77.12359 | 27240 ft | 447 kts | 106° |
| 2026-05-05 08:20 | 26.15670 | 77.15700 | 26686 ft | 448 kts | 106° |
| 2026-05-05 08:20 | 26.14830 | 77.19036 | 26140 ft | 448 kts | 106° |
| 2026-05-05 08:21 | 26.13959 | 77.22365 | 25641 ft | 447 kts | 111° |
| 2026-05-05 08:21 | 26.12527 | 77.25397 | 25201 ft | 440 kts | 129° |
| 2026-05-05 08:21 | 26.10419 | 77.27786 | 24857 ft | 429 kts | 147° |
| 2026-05-05 08:21 | 26.07857 | 77.29373 | 24476 ft | 417 kts | 163° |
| 2026-05-05 08:22 | 26.05066 | 77.30088 | 24049 ft | 407 kts | 180° |
| 2026-05-05 08:22 | 26.02279 | 77.29937 | 23625 ft | 397 kts | 195° |
| 2026-05-05 08:22 | 25.99748 | 77.29009 | 23499 ft | 379 kts | 210° |
| 2026-05-05 08:22 | 25.97580 | 77.27475 | 23415 ft | 361 kts | 224° |
| 2026-05-05 08:23 | 25.95890 | 77.25492 | 23318 ft | 345 kts | 237° |
| 2026-05-05 08:23 | 25.94709 | 77.23225 | 23072 ft | 336 kts | 249° |
| 2026-05-05 08:23 | 25.94005 | 77.20770 | 22674 ft | 332 kts | 259° |
| 2026-05-05 08:23 | 25.93670 | 77.18241 | 22261 ft | 331 kts | 268° |
| 2026-05-05 08:24 | 25.93825 | 77.15697 | 21849 ft | 330 kts | 281° |
| 2026-05-05 08:24 | 25.94353 | 77.13226 | 21503 ft | 328 kts | 284° |
| 2026-05-05 08:24 | 25.94941 | 77.10813 | 21133 ft | 327 kts | 284° |
| 2026-05-05 08:24 | 25.95545 | 77.08384 | 20761 ft | 325 kts | 284° |
| 2026-05-05 08:25 | 25.96143 | 77.05964 | 20433 ft | 323 kts | 284° |
| 2026-05-05 08:25 | 25.96729 | 77.03562 | 20091 ft | 322 kts | 284° |
| 2026-05-05 08:25 | 25.97310 | 77.01158 | 19743 ft | 320 kts | 284° |
| 2026-05-05 08:25 | 25.97883 | 76.98769 | 19411 ft | 319 kts | 284° |
| 2026-05-05 08:26 | 25.98454 | 76.96383 | 19078 ft | 318 kts | 284° |
| 2026-05-05 08:26 | 25.99139 | 76.94092 | 18738 ft | 318 kts | 296° |
| 2026-05-05 08:26 | 26.00368 | 76.92054 | 18416 ft | 318 kts | 308° |
| 2026-05-05 08:26 | 26.01916 | 76.90295 | 18089 ft | 318 kts | 317° |
| 2026-05-05 08:27 | 26.03698 | 76.88829 | 17727 ft | 319 kts | 326° |
| 2026-05-05 08:27 | 26.05702 | 76.87762 | 17375 ft | 321 kts | 338° |
| 2026-05-05 08:27 | 26.07890 | 76.87205 | 17026 ft | 324 kts | 351° |
| 2026-05-05 08:27 | 26.10153 | 76.87227 | 16692 ft | 327 kts | 4° |
| 2026-05-05 08:28 | 26.12370 | 76.87830 | 16354 ft | 330 kts | 18° |
| 2026-05-05 08:28 | 26.14422 | 76.88981 | 16019 ft | 332 kts | 31° |
| 2026-05-05 08:28 | 26.16203 | 76.90624 | 15694 ft | 334 kts | 44° |
| 2026-05-05 08:28 | 26.17598 | 76.92656 | 15398 ft | 335 kts | 58° |
| 2026-05-05 08:29 | 26.18559 | 76.95020 | 15082 ft | 336 kts | 71° |
| 2026-05-05 08:29 | 26.19084 | 76.97550 | 14964 ft | 338 kts | 81° |
| 2026-05-05 08:29 | 26.19198 | 77.00166 | 14929 ft | 339 kts | 96° |
| 2026-05-05 08:30 | 26.18173 | 77.05253 | 14931 ft | 336 kts | 106° |
| 2026-05-05 08:30 | 26.17555 | 77.07744 | 14831 ft | 333 kts | 106° |
| 2026-05-05 08:30 | 26.16939 | 77.10225 | 14593 ft | 331 kts | 106° |
| 2026-05-05 08:30 | 26.16334 | 77.12687 | 14244 ft | 332 kts | 106° |
| 2026-05-05 08:31 | 26.16041 | 77.15226 | 13860 ft | 333 kts | 82° |
| 2026-05-05 08:31 | 26.16788 | 77.17582 | 13539 ft | 327 kts | 54° |
| 2026-05-05 08:31 | 26.18314 | 77.19388 | 13236 ft | 318 kts | 32° |
| 2026-05-05 08:31 | 26.20265 | 77.20490 | 12910 ft | 311 kts | 14° |
| 2026-05-05 08:32 | 26.22371 | 77.20838 | 12565 ft | 305 kts | 356° |
| 2026-05-05 08:32 | 26.24480 | 77.20789 | 12258 ft | 302 kts | 354° |
| 2026-05-05 08:32 | 26.26583 | 77.20676 | 11943 ft | 301 kts | 354° |
| 2026-05-05 08:32 | 26.28670 | 77.20551 | 11642 ft | 299 kts | 353° |
| 2026-05-05 08:33 | 26.30744 | 77.20428 | 11357 ft | 298 kts | 354° |
| 2026-05-05 08:33 | 26.32810 | 77.20311 | 11040 ft | 297 kts | 354° |
| 2026-05-05 08:33 | 26.34869 | 77.20199 | 10767 ft | 296 kts | 354° |
| 2026-05-05 08:33 | 26.36923 | 77.20091 | 10480 ft | 294 kts | 354° |
| 2026-05-05 08:34 | 26.38942 | 77.19987 | 10229 ft | 292 kts | 354° |
| 2026-05-05 08:34 | 26.40973 | 77.19885 | 10006 ft | 291 kts | 354° |
| 2026-05-05 08:34 | 26.43009 | 77.19783 | 9966 ft | 294 kts | 354° |
| 2026-05-05 08:34 | 26.45053 | 77.19682 | 9935 ft | 292 kts | 354° |
| 2026-05-05 08:35 | 26.47081 | 77.19582 | 9937 ft | 291 kts | 354° |
| 2026-05-05 08:35 | 26.49105 | 77.19483 | 9936 ft | 292 kts | 354° |
| 2026-05-05 08:35 | 26.51140 | 77.19383 | 9932 ft | 292 kts | 354° |
| 2026-05-05 08:35 | 26.53169 | 77.19284 | 9932 ft | 292 kts | 354° |
| 2026-05-05 08:36 | 26.55198 | 77.19185 | 9930 ft | 291 kts | 354° |
| 2026-05-05 08:36 | 26.57226 | 77.19086 | 9929 ft | 291 kts | 354° |
| 2026-05-05 08:36 | 26.59253 | 77.18987 | 9937 ft | 291 kts | 354° |
| 2026-05-05 08:36 | 26.61251 | 77.18890 | 9933 ft | 291 kts | 354° |
| 2026-05-05 08:37 | 26.63276 | 77.18791 | 9932 ft | 292 kts | 354° |
| 2026-05-05 08:37 | 26.65304 | 77.18692 | 9922 ft | 292 kts | 354° |
| 2026-05-05 08:37 | 26.67336 | 77.18593 | 9920 ft | 291 kts | 354° |
| 2026-05-05 08:37 | 26.69362 | 77.18494 | 9925 ft | 291 kts | 354° |
| 2026-05-05 08:38 | 26.71396 | 77.18395 | 9922 ft | 292 kts | 354° |
| 2026-05-05 08:38 | 26.73420 | 77.18296 | 9922 ft | 292 kts | 354° |
| 2026-05-05 08:38 | 26.75451 | 77.18197 | 9919 ft | 292 kts | 354° |
| 2026-05-05 08:38 | 26.77480 | 77.18098 | 9925 ft | 292 kts | 354° |
| 2026-05-05 08:39 | 26.79513 | 77.17998 | 9923 ft | 292 kts | 354° |
| 2026-05-05 08:39 | 26.81562 | 77.17897 | 9933 ft | 303 kts | 354° |
| 2026-05-05 08:39 | 26.83758 | 77.17785 | 9940 ft | 329 kts | 355° |
| 2026-05-05 08:39 | 26.86088 | 77.17668 | 9927 ft | 338 kts | 355° |
| 2026-05-05 08:40 | 26.88444 | 77.17553 | 9913 ft | 339 kts | 355° |
| 2026-05-05 08:40 | 26.90794 | 77.17440 | 9900 ft | 338 kts | 355° |
| 2026-05-05 08:40 | 26.93142 | 77.17328 | 9911 ft | 338 kts | 355° |
| 2026-05-05 08:40 | 26.95489 | 77.17214 | 9910 ft | 338 kts | 355° |
| 2026-05-05 08:41 | 26.97840 | 77.17100 | 9897 ft | 338 kts | 355° |
| 2026-05-05 08:41 | 27.00158 | 77.16986 | 9898 ft | 337 kts | 355° |
| 2026-05-05 08:41 | 27.02507 | 77.16871 | 9909 ft | 337 kts | 355° |
| 2026-05-05 08:41 | 27.04852 | 77.16756 | 9907 ft | 337 kts | 355° |
| 2026-05-05 08:42 | 27.07205 | 77.16641 | 9906 ft | 338 kts | 355° |
| 2026-05-05 08:42 | 27.09554 | 77.16525 | 9908 ft | 338 kts | 355° |
| 2026-05-05 08:42 | 27.11907 | 77.16410 | 9911 ft | 339 kts | 355° |
| 2026-05-05 08:42 | 27.14263 | 77.16294 | 9913 ft | 339 kts | 355° |
| 2026-05-05 08:43 | 27.16627 | 77.16177 | 9911 ft | 340 kts | 355° |
| 2026-05-05 08:43 | 27.18990 | 77.16061 | 9901 ft | 340 kts | 355° |
| 2026-05-05 08:43 | 27.21349 | 77.15945 | 9913 ft | 340 kts | 355° |
| 2026-05-05 08:43 | 27.23708 | 77.15829 | 9914 ft | 339 kts | 355° |
| 2026-05-05 08:44 | 27.26043 | 77.15714 | 9913 ft | 340 kts | 355° |
| 2026-05-05 08:44 | 27.28403 | 77.15597 | 9913 ft | 340 kts | 355° |
| 2026-05-05 08:44 | 27.30769 | 77.15481 | 9908 ft | 340 kts | 355° |
| 2026-05-05 08:44 | 27.33132 | 77.15364 | 9919 ft | 339 kts | 355° |
| 2026-05-05 08:45 | 27.35489 | 77.15248 | 9920 ft | 340 kts | 355° |
| 2026-05-05 08:45 | 27.37851 | 77.15131 | 9911 ft | 340 kts | 355° |
| 2026-05-05 08:45 | 27.40214 | 77.15014 | 9921 ft | 340 kts | 355° |
| 2026-05-05 08:45 | 27.42583 | 77.14897 | 9918 ft | 340 kts | 355° |
| 2026-05-05 08:46 | 27.44953 | 77.14780 | 9911 ft | 340 kts | 355° |
| 2026-05-05 08:46 | 27.47316 | 77.14663 | 9912 ft | 340 kts | 355° |
| 2026-05-05 08:46 | 27.49689 | 77.14544 | 9918 ft | 340 kts | 355° |
| 2026-05-05 08:46 | 27.52022 | 77.14422 | 9919 ft | 340 kts | 355° |
| 2026-05-05 08:47 | 27.54389 | 77.14297 | 9914 ft | 340 kts | 355° |
| 2026-05-05 08:47 | 27.56758 | 77.14173 | 9927 ft | 340 kts | 355° |
| 2026-05-05 08:47 | 27.59124 | 77.14049 | 9912 ft | 340 kts | 355° |
| 2026-05-05 08:47 | 27.61487 | 77.13925 | 9917 ft | 340 kts | 355° |
| 2026-05-05 08:48 | 27.63849 | 77.13803 | 9929 ft | 340 kts | 356° |
| 2026-05-05 08:48 | 27.66206 | 77.14053 | 9916 ft | 343 kts | 11° |
| 2026-05-05 08:48 | 27.68516 | 77.14767 | 9928 ft | 344 kts | 14° |
| 2026-05-05 08:48 | 27.70823 | 77.15533 | 9922 ft | 344 kts | 14° |
| 2026-05-05 08:49 | 27.73122 | 77.16301 | 9937 ft | 344 kts | 14° |
| 2026-05-05 08:49 | 27.75424 | 77.17060 | 9925 ft | 345 kts | 14° |
| 2026-05-05 08:49 | 27.77731 | 77.17810 | 9917 ft | 345 kts | 13° |
| 2026-05-05 08:49 | 27.80036 | 77.18551 | 9934 ft | 345 kts | 13° |
| 2026-05-05 08:50 | 27.82342 | 77.19287 | 9924 ft | 345 kts | 13° |
| 2026-05-05 08:50 | 27.84652 | 77.20022 | 9935 ft | 344 kts | 13° |
| 2026-05-05 08:50 | 27.86961 | 77.20756 | 9920 ft | 344 kts | 13° |
| 2026-05-05 08:50 | 27.89267 | 77.21489 | 9929 ft | 344 kts | 13° |
| 2026-05-05 08:51 | 27.91538 | 77.22211 | 9914 ft | 344 kts | 13° |
| 2026-05-05 08:51 | 27.93867 | 77.22951 | 9921 ft | 343 kts | 13° |
| 2026-05-05 08:51 | 27.96143 | 77.23675 | 9930 ft | 343 kts | 13° |
| 2026-05-05 08:51 | 27.98448 | 77.24408 | 9924 ft | 343 kts | 14° |
| 2026-05-05 08:52 | 28.00744 | 77.25139 | 9915 ft | 343 kts | 14° |
| 2026-05-05 08:52 | 28.03039 | 77.25870 | 9920 ft | 342 kts | 14° |
| 2026-05-05 08:52 | 28.04555 | 77.26353 | 9914 ft | 342 kts | 13° |
| 2026-05-05 08:52 | 28.06864 | 77.26950 | 9919 ft | 340 kts | 7° |
| 2026-05-05 08:53 | 28.09212 | 77.27316 | 9930 ft | 339 kts | 5° |
| 2026-05-05 08:53 | 28.11562 | 77.27615 | 9913 ft | 339 kts | 4° |
| 2026-05-05 08:53 | 28.13909 | 77.27911 | 9915 ft | 339 kts | 4° |
| 2026-05-05 08:53 | 28.16258 | 77.28220 | 9913 ft | 339 kts | 5° |
| 2026-05-05 08:54 | 28.18606 | 77.28542 | 9929 ft | 340 kts | 5° |
| 2026-05-05 08:54 | 28.20948 | 77.28874 | 9909 ft | 340 kts | 5° |
| 2026-05-05 08:54 | 28.23300 | 77.29214 | 9913 ft | 340 kts | 5° |
| 2026-05-05 08:54 | 28.25647 | 77.29556 | 9921 ft | 340 kts | 5° |
| 2026-05-05 08:55 | 28.27993 | 77.29900 | 9916 ft | 340 kts | 6° |
| 2026-05-05 08:55 | 28.30343 | 77.30245 | 9924 ft | 340 kts | 6° |
| 2026-05-05 08:55 | 28.32694 | 77.30589 | 9914 ft | 340 kts | 6° |
| 2026-05-05 08:55 | 28.35050 | 77.30851 | 9905 ft | 339 kts | 356° |
| 2026-05-05 08:56 | 28.37293 | 77.30277 | 9921 ft | 336 kts | 334° |
| 2026-05-05 08:56 | 28.39181 | 77.28757 | 9923 ft | 333 kts | 312° |
| 2026-05-05 08:56 | 28.40472 | 77.26594 | 9909 ft | 332 kts | 292° |
| 2026-05-05 08:56 | 28.41132 | 77.24083 | 9925 ft | 330 kts | 283° |
| 2026-05-05 08:57 | 28.41647 | 77.21577 | 9876 ft | 322 kts | 283° |
| 2026-05-05 08:57 | 28.42148 | 77.19141 | 9804 ft | 310 kts | 283° |
| 2026-05-05 08:57 | 28.42639 | 77.16800 | 9723 ft | 299 kts | 283° |
| 2026-05-05 08:57 | 28.43121 | 77.14543 | 9648 ft | 288 kts | 283° |
| 2026-05-05 08:58 | 28.43588 | 77.12373 | 9578 ft | 278 kts | 284° |
| 2026-05-05 08:58 | 28.44041 | 77.10277 | 9504 ft | 268 kts | 283° |
| 2026-05-05 08:58 | 28.44476 | 77.08258 | 9433 ft | 258 kts | 283° |
| 2026-05-05 08:58 | 28.44896 | 77.06314 | 9348 ft | 248 kts | 283° |
| 2026-05-05 08:59 | 28.45303 | 77.04427 | 9150 ft | 245 kts | 283° |
| 2026-05-05 08:59 | 28.45707 | 77.02550 | 8875 ft | 244 kts | 283° |
| 2026-05-05 08:59 | 28.46109 | 77.00680 | 8608 ft | 243 kts | 283° |
| 2026-05-05 08:59 | 28.46511 | 76.98811 | 8332 ft | 243 kts | 283° |
| 2026-05-05 09:00 | 28.46906 | 76.96973 | 8072 ft | 242 kts | 283° |
| 2026-05-05 09:00 | 28.47309 | 76.95097 | 7802 ft | 242 kts | 283° |
| 2026-05-05 09:00 | 28.47702 | 76.93266 | 7560 ft | 241 kts | 283° |
| 2026-05-05 09:00 | 28.48099 | 76.91418 | 7294 ft | 241 kts | 283° |
| 2026-05-05 09:01 | 28.48496 | 76.89567 | 7046 ft | 240 kts | 283° |
| 2026-05-05 09:01 | 28.48891 | 76.87723 | 6966 ft | 241 kts | 283° |
| 2026-05-05 09:01 | 28.49280 | 76.85903 | 6914 ft | 232 kts | 283° |
| 2026-05-05 09:01 | 28.49651 | 76.84169 | 6919 ft | 219 kts | 283° |
| 2026-05-05 09:02 | 28.50038 | 76.82519 | 6922 ft | 216 kts | 285° |
| 2026-05-05 09:02 | 28.50644 | 76.80964 | 6884 ft | 219 kts | 312° |
| 2026-05-05 09:02 | 28.51953 | 76.80132 | 6736 ft | 221 kts | 348° |
| 2026-05-05 09:02 | 28.53476 | 76.80251 | 6421 ft | 223 kts | 18° |
| 2026-05-05 09:03 | 28.54799 | 76.81078 | 6334 ft | 210 kts | 32° |
| 2026-05-05 09:03 | 28.55962 | 76.82000 | 6216 ft | 198 kts | 33° |
| 2026-05-05 09:03 | 28.57077 | 76.82898 | 5935 ft | 194 kts | 33° |
| 2026-05-05 09:03 | 28.58178 | 76.83781 | 5636 ft | 193 kts | 34° |
| 2026-05-05 09:04 | 28.59051 | 76.84916 | 5291 ft | 194 kts | 66° |
| 2026-05-05 09:04 | 28.59299 | 76.86394 | 5011 ft | 190 kts | 96° |
| 2026-05-05 09:04 | 28.59035 | 76.87847 | 4756 ft | 185 kts | 104° |
| 2026-05-05 09:04 | 28.58735 | 76.89281 | 4182 ft | 193 kts | 103° |
| 2026-05-05 09:05 | 28.58415 | 76.90809 | 3597 ft | 200 kts | 103° |
| 2026-05-05 09:05 | 28.58098 | 76.92312 | 3319 ft | 191 kts | 103° |
| 2026-05-05 09:05 | 28.57791 | 76.93767 | 3062 ft | 189 kts | 103° |
| 2026-05-05 09:05 | 28.57505 | 76.95221 | 2802 ft | 186 kts | 99° |
| 2026-05-05 09:06 | 28.57385 | 76.96674 | 2561 ft | 182 kts | 93° |
| 2026-05-05 09:06 | 28.57346 | 76.98087 | 2312 ft | 179 kts | 92° |
| 2026-05-05 09:06 | 28.57310 | 76.99502 | 2061 ft | 174 kts | 93° |
| 2026-05-05 09:06 | 28.57273 | 77.00830 | 1857 ft | 161 kts | 92° |
| 2026-05-05 09:07 | 28.57240 | 77.02036 | 1664 ft | 150 kts | 93° |
| 2026-05-05 09:07 | 28.57149 | 77.03253 | 1519 ft | 158 kts | 108° |
| 2026-05-05 09:07 | 28.56632 | 77.04354 | 1265 ft | 157 kts | 123° |
| 2026-05-05 09:07 | 28.55988 | 77.05345 | 1064 ft | 156 kts | 131° |
| 2026-05-05 09:08 | 28.55229 | 77.06218 | 951 ft | 156 kts | 134° |
| 2026-05-05 09:08 | 28.54546 | 77.07140 | 765 ft | 149 kts | 112° |
| 2026-05-05 09:08 | 28.54159 | 77.08180 | 1028 ft | 146 kts | 112° |
| 2026-05-05 09:08 | 28.53751 | 77.09267 | 1746 ft | 152 kts | 110° |
| 2026-05-05 09:09 | 28.53362 | 77.10389 | 2674 ft | 152 kts | 111° |
| 2026-05-05 09:09 | 28.52960 | 77.11631 | 3068 ft | 189 kts | 109° |
| 2026-05-05 09:09 | 28.52500 | 77.13144 | 2767 ft | 221 kts | 109° |
| 2026-05-05 09:09 | 28.51957 | 77.14956 | 2877 ft | 256 kts | 109° |
| 2026-05-05 09:10 | 28.51393 | 77.16864 | 3402 ft | 250 kts | 108° |
| 2026-05-05 09:10 | 28.50861 | 77.18659 | 3591 ft | 228 kts | 108° |
| 2026-05-05 09:10 | 28.50381 | 77.20284 | 3762 ft | 205 kts | 108° |
| 2026-05-05 09:10 | 28.49952 | 77.21748 | 3884 ft | 189 kts | 108° |
| 2026-05-05 09:11 | 28.49518 | 77.23225 | 3920 ft | 212 kts | 108° |
| 2026-05-05 09:11 | 28.48932 | 77.24907 | 3921 ft | 248 kts | 124° |
| 2026-05-05 09:11 | 28.47523 | 77.26208 | 3943 ft | 283 kts | 158° |
| 2026-05-05 09:11 | 28.45473 | 77.26462 | 3916 ft | 313 kts | 189° |
| 2026-05-05 09:12 | 28.43521 | 77.25492 | 3900 ft | 304 kts | 219° |
| 2026-05-05 09:12 | 28.42353 | 77.23634 | 3894 ft | 282 kts | 251° |
| 2026-05-05 09:12 | 28.42105 | 77.21517 | 3910 ft | 260 kts | 260° |
| 2026-05-05 09:12 | 28.41773 | 77.19578 | 3893 ft | 243 kts | 269° |
| 2026-05-05 09:13 | 28.42223 | 77.17758 | 3939 ft | 242 kts | 297° |
| 2026-05-05 09:13 | 28.42668 | 77.15918 | 3911 ft | 243 kts | 271° |
| 2026-05-05 09:13 | 28.42933 | 77.14032 | 3904 ft | 245 kts | 290° |
| 2026-05-05 09:13 | 28.43496 | 77.12223 | 3863 ft | 242 kts | 288° |
| 2026-05-05 09:14 | 28.43967 | 77.10391 | 3582 ft | 240 kts | 285° |
| 2026-05-05 09:14 | 28.44392 | 77.08552 | 3154 ft | 243 kts | 284° |
| 2026-05-05 09:14 | 28.44805 | 77.06686 | 2971 ft | 245 kts | 284° |
| 2026-05-05 09:14 | 28.45198 | 77.04889 | 2906 ft | 222 kts | 284° |
| 2026-05-05 09:15 | 28.45550 | 77.03267 | 2896 ft | 203 kts | 283° |
| 2026-05-05 09:15 | 28.45875 | 77.01762 | 2902 ft | 190 kts | 284° |
| 2026-05-05 09:15 | 28.46185 | 77.00323 | 2903 ft | 183 kts | 284° |
| 2026-05-05 09:15 | 28.46483 | 76.98940 | 2923 ft | 180 kts | 283° |
| 2026-05-05 09:16 | 28.46783 | 76.97546 | 2942 ft | 183 kts | 284° |
| 2026-05-05 09:16 | 28.47082 | 76.96153 | 2934 ft | 178 kts | 284° |
| 2026-05-05 09:16 | 28.47361 | 76.94856 | 2899 ft | 162 kts | 283° |
| 2026-05-05 09:16 | 28.47620 | 76.93647 | 2882 ft | 158 kts | 284° |
| 2026-05-05 09:17 | 28.47904 | 76.92323 | 2968 ft | 185 kts | 284° |
| 2026-05-05 09:17 | 28.48205 | 76.90924 | 2860 ft | 172 kts | 284° |
| 2026-05-05 09:17 | 28.48473 | 76.89670 | 2646 ft | 157 kts | 284° |
| 2026-05-05 09:17 | 28.48735 | 76.88447 | 2378 ft | 163 kts | 284° |
| 2026-05-05 09:18 | 28.48997 | 76.87224 | 2393 ft | 158 kts | 284° |
| 2026-05-05 09:18 | 28.49256 | 76.86012 | 2437 ft | 158 kts | 285° |
| 2026-05-05 09:18 | 28.49516 | 76.84796 | 2412 ft | 158 kts | 284° |
| 2026-05-05 09:18 | 28.49806 | 76.83591 | 2392 ft | 158 kts | 296° |
| 2026-05-05 09:19 | 28.50577 | 76.82828 | 2397 ft | 145 kts | 351° |
| 2026-05-05 09:19 | 28.51544 | 76.82963 | 2442 ft | 145 kts | 17° |
| 2026-05-05 09:19 | 28.52542 | 76.83210 | 2465 ft | 146 kts | 11° |
| 2026-05-05 09:19 | 28.53548 | 76.83450 | 2457 ft | 151 kts | 16° |
| 2026-05-05 09:20 | 28.54565 | 76.83700 | 2418 ft | 147 kts | 15° |
| 2026-05-05 09:20 | 28.55546 | 76.83946 | 2390 ft | 142 kts | 16° |
| 2026-05-05 09:20 | 28.56530 | 76.84214 | 2397 ft | 149 kts | 23° |
| 2026-05-05 09:20 | 28.57213 | 76.84979 | 2415 ft | 140 kts | 76° |
| 2026-05-05 09:21 | 28.57317 | 76.86095 | 2421 ft | 144 kts | 84° |
| 2026-05-05 09:21 | 28.57414 | 76.87191 | 2398 ft | 136 kts | 86° |
| 2026-05-05 09:21 | 28.57505 | 76.88289 | 2419 ft | 142 kts | 86° |
| 2026-05-05 09:21 | 28.57549 | 76.89397 | 2391 ft | 137 kts | 90° |
| 2026-05-05 09:22 | 28.57501 | 76.90506 | 2412 ft | 147 kts | 103° |
| 2026-05-05 09:22 | 28.57145 | 76.91596 | 2561 ft | 146 kts | 109° |
| 2026-05-05 09:22 | 28.56954 | 76.92733 | 2892 ft | 147 kts | 97° |
| 2026-05-05 09:22 | 28.56888 | 76.93904 | 3272 ft | 148 kts | 95° |
| 2026-05-05 09:23 | 28.56781 | 76.95083 | 3544 ft | 159 kts | 97° |
| 2026-05-05 09:23 | 28.56645 | 76.96324 | 3432 ft | 156 kts | 98° |
| 2026-05-05 09:23 | 28.56487 | 76.97535 | 3081 ft | 152 kts | 100° |
| 2026-05-05 09:23 | 28.56348 | 76.98713 | 2715 ft | 149 kts | 97° |
| 2026-05-05 09:24 | 28.56187 | 76.99880 | 2223 ft | 149 kts | 100° |
| 2026-05-05 09:24 | 28.55974 | 77.01018 | 1766 ft | 146 kts | 104° |
| 2026-05-05 09:24 | 28.55742 | 77.02128 | 1369 ft | 142 kts | 99° |
| 2026-05-05 09:24 | 28.55584 | 77.03201 | 1109 ft | 135 kts | 102° |
| 2026-05-05 09:25 | 28.55376 | 77.04281 | 1010 ft | 142 kts | 104° |
| 2026-05-05 09:25 | 28.55139 | 77.05378 | 950 ft | 144 kts | 104° |
| 2026-05-05 09:25 | 28.54895 | 77.06480 | 932 ft | 143 kts | 104° |
| 2026-05-05 09:25 | 28.54673 | 77.07591 | 896 ft | 147 kts | 103° |
| 2026-05-05 09:26 | 28.54433 | 77.08710 | 820 ft | 145 kts | 104° |
| 2026-05-05 09:26 | 28.54216 | 77.09749 | 763 ft | 135 kts | 109° |